Weather at Saint-Brieuc-Armor Airport

Public forecast

Using degrees Celsius for public forecast. Weather courtesy of forecast.io.

Current aviation weather report (METAR) for Saint-Brieuc-Armor Airport

Retrieved 2021/09/27 07:00 UTC (2 minutes ago):

LFRT 270700Z AUTO 25009KT CAVOK 12/11 Q1012

Closest aviation forecast (TAF) to Saint-Brieuc-Armor Airport

Forecast is more than 12 hours old.

Closest forecast is Lannion-Côte de Granit Airport, 27.7 nm (51.3 km) WNW. Retrieved 2019/05/15 19:06 UTC (2 years ago):

TAF LFRO 151936Z 1519/1612 CNL